Hlavní strana
METAR-TAF:

METAR-TAF

Letiště :

Ivalo, Finsko

zeměpisná šířka: 68-37N, zeměpisná délka: 027-25E, výška: 147 m

Aktuální stav počasí

Zpráva byla vytvořena před 30 minutami, v 09:20 UTC
Severoseverozápadní vítr 9 kt, proměnlivý mezi západoseverozápadním a severním
Teplota -5°C
Vlhkost vzduchu 63%
Tlak 1003 hPa
Viditelnost 10 km a více
Skoro jasno ve výšce 2900 ft

METAR: EFIV 040920Z AUTO 33009KT 290V360 9999 FEW029 M05/M11 Q1003

Čas: 11:50 (09:50 UTC)

Předpověď počasí

Zpráva byla vytvořena před 1 hodinou a 22 minutami, v 08:28 UTC
Předpověď platná od 04 v 09 UTC do 04 v 15 UTC
Severozápadní vítr 10 kt
Viditelnost 10 km a více
Oblačno až skoro zataženo ve výšce 3000 ft
Dočasný
od 04 v 09 UTC do 04 v 15 UTC
Viditelnost: 2000 m
Polojasno ve výšce 2000 ft, Vertikální cumulus.
slabé sněhové přeháňky

TAF: EFIV 040828Z 0409/0415 32010KT 9999 BKN030 TEMPO 0409/0415 2000 -SHSN SCT020TCU

Stav a předpovědi počasí z více než 4 000 letišť (zprávy METAR a TAF).

Červené a žluté tečky na mapě představují dostupné meteorologické stanice.

Když kurzor umístíte na tečku, zobrazí se název stanice.

Pak kliknutím zobrazíte stav a předpověď počasí.

Chcete-li změnit mapu, kliknutím na zelené tlačítko se znaménkem +mapu přiblížíte, kliknutím na zelené tlačítko se znaménkem – mapu oddálíte a kliknutím na zelené šipky přejdete na sousední mapy.


METAR-TAF: